sensor_id;sensor_type;location;lat;lon;timestamp;P1;durP1;ratioP1;P2;durP2;ratioP2
17648;SDS011;8943;51.110;-4.158;2022-08-11T00:02:27;3.60;;;2.60;;
17648;SDS011;8943;51.110;-4.158;2022-08-11T00:05:05;8.43;;;3.80;;
17648;SDS011;8943;51.110;-4.158;2022-08-11T00:07:40;5.90;;;3.27;;
17648;SDS011;8943;51.110;-4.158;2022-08-11T00:10:12;6.70;;;3.23;;
17648;SDS011;8943;51.110;-4.158;2022-08-11T00:12:42;5.83;;;3.53;;
17648;SDS011;8943;51.110;-4.158;2022-08-11T00:15:17;6.37;;;3.20;;
17648;SDS011;8943;51.110;-4.158;2022-08-11T00:17:45;3.83;;;3.07;;
17648;SDS011;8943;51.110;-4.158;2022-08-11T00:20:15;7.27;;;3.30;;
17648;SDS011;8943;51.110;-4.158;2022-08-11T00:22:45;8.90;;;3.17;;
17648;SDS011;8943;51.110;-4.158;2022-08-11T00:25:17;4.73;;;3.00;;
17648;SDS011;8943;51.110;-4.158;2022-08-11T00:27:47;7.33;;;3.40;;
17648;SDS011;8943;51.110;-4.158;2022-08-11T00:30:15;4.77;;;2.93;;
17648;SDS011;8943;51.110;-4.158;2022-08-11T00:32:45;5.70;;;3.30;;
17648;SDS011;8943;51.110;-4.158;2022-08-11T00:35:23;5.23;;;3.30;;
17648;SDS011;8943;51.110;-4.158;2022-08-11T00:38:14;6.27;;;3.07;;
17648;SDS011;8943;51.110;-4.158;2022-08-11T00:40:50;4.50;;;2.63;;
17648;SDS011;8943;51.110;-4.158;2022-08-11T00:43:26;3.67;;;2.77;;
17648;SDS011;8943;51.110;-4.158;2022-08-11T00:46:13;4.17;;;2.97;;
17648;SDS011;8943;51.110;-4.158;2022-08-11T00:48:52;3.70;;;3.10;;
17648;SDS011;8943;51.110;-4.158;2022-08-11T00:51:42;4.13;;;3.20;;
17648;SDS011;8943;51.110;-4.158;2022-08-11T00:54:40;4.87;;;3.27;;
17648;SDS011;8943;51.110;-4.158;2022-08-11T01:01:00;3.90;;;3.27;;
17648;SDS011;8943;51.110;-4.158;2022-08-11T01:06:47;4.33;;;3.33;;
17648;SDS011;8943;51.110;-4.158;2022-08-11T01:09:43;4.40;;;3.23;;
17648;SDS011;8943;51.110;-4.158;2022-08-11T01:12:39;5.30;;;3.70;;
17648;SDS011;8943;51.110;-4.158;2022-08-11T01:18:36;4.80;;;3.43;;
17648;SDS011;8943;51.110;-4.158;2022-08-11T01:40:56;4.53;;;3.20;;
17648;SDS011;8943;51.110;-4.158;2022-08-11T01:44:18;8.23;;;3.30;;
17648;SDS011;8943;51.110;-4.158;2022-08-11T01:47:16;4.33;;;2.80;;
17648;SDS011;8943;51.110;-4.158;2022-08-11T01:50:30;3.10;;;2.80;;
17648;SDS011;8943;51.110;-4.158;2022-08-11T01:53:20;4.87;;;3.23;;
17648;SDS011;8943;51.110;-4.158;2022-08-11T01:56:04;7.23;;;3.13;;
17648;SDS011;8943;51.110;-4.158;2022-08-11T01:58:41;3.20;;;2.90;;
17648;SDS011;8943;51.110;-4.158;2022-08-11T02:01:22;4.70;;;2.70;;
17648;SDS011;8943;51.110;-4.158;2022-08-11T02:04:04;4.57;;;2.73;;
17648;SDS011;8943;51.110;-4.158;2022-08-11T02:06:47;5.57;;;2.93;;
17648;SDS011;8943;51.110;-4.158;2022-08-11T02:09:25;6.67;;;2.97;;
17648;SDS011;8943;51.110;-4.158;2022-08-11T02:12:23;4.33;;;2.70;;
17648;SDS011;8943;51.110;-4.158;2022-08-11T02:15:11;8.70;;;2.83;;
17648;SDS011;8943;51.110;-4.158;2022-08-11T02:17:56;6.07;;;3.23;;
17648;SDS011;8943;51.110;-4.158;2022-08-11T02:20:36;3.40;;;2.73;;
17648;SDS011;8943;51.110;-4.158;2022-08-11T02:23:31;4.90;;;3.17;;
17648;SDS011;8943;51.110;-4.158;2022-08-11T02:26:30;4.20;;;3.50;;
17648;SDS011;8943;51.110;-4.158;2022-08-11T02:29:09;4.13;;;3.07;;
17648;SDS011;8943;51.110;-4.158;2022-08-11T02:31:49;6.90;;;2.93;;
17648;SDS011;8943;51.110;-4.158;2022-08-11T02:35:00;5.00;;;3.40;;
17648;SDS011;8943;51.110;-4.158;2022-08-11T02:37:40;3.67;;;3.03;;
17648;SDS011;8943;51.110;-4.158;2022-08-11T02:40:23;4.93;;;3.20;;
17648;SDS011;8943;51.110;-4.158;2022-08-11T02:43:04;5.50;;;3.70;;
17648;SDS011;8943;51.110;-4.158;2022-08-11T02:45:39;5.33;;;3.20;;
17648;SDS011;8943;51.110;-4.158;2022-08-11T02:48:18;3.50;;;2.67;;
17648;SDS011;8943;51.110;-4.158;2022-08-11T02:51:15;3.27;;;2.93;;
17648;SDS011;8943;51.110;-4.158;2022-08-11T02:53:53;5.10;;;2.93;;
17648;SDS011;8943;51.110;-4.158;2022-08-11T02:56:35;3.87;;;3.20;;
17648;SDS011;8943;51.110;-4.158;2022-08-11T02:59:14;3.37;;;3.07;;
17648;SDS011;8943;51.110;-4.158;2022-08-11T03:02:13;4.73;;;3.00;;
17648;SDS011;8943;51.110;-4.158;2022-08-11T03:04:54;4.03;;;3.00;;
17648;SDS011;8943;51.110;-4.158;2022-08-11T03:07:30;4.03;;;3.10;;
17648;SDS011;8943;51.110;-4.158;2022-08-11T03:10:07;6.10;;;3.07;;
17648;SDS011;8943;51.110;-4.158;2022-08-11T03:12:46;7.00;;;3.10;;
17648;SDS011;8943;51.110;-4.158;2022-08-11T03:15:42;3.17;;;2.60;;
17648;SDS011;8943;51.110;-4.158;2022-08-11T03:18:31;4.57;;;3.33;;
17648;SDS011;8943;51.110;-4.158;2022-08-11T03:21:06;4.80;;;3.00;;
17648;SDS011;8943;51.110;-4.158;2022-08-11T03:23:47;5.37;;;3.23;;
17648;SDS011;8943;51.110;-4.158;2022-08-11T03:26:24;5.40;;;3.47;;
17648;SDS011;8943;51.110;-4.158;2022-08-11T03:29:03;4.07;;;2.83;;
17648;SDS011;8943;51.110;-4.158;2022-08-11T03:31:44;3.80;;;3.27;;
17648;SDS011;8943;51.110;-4.158;2022-08-11T03:34:21;4.17;;;3.23;;
17648;SDS011;8943;51.110;-4.158;2022-08-11T03:40:46;4.73;;;2.90;;
17648;SDS011;8943;51.110;-4.158;2022-08-11T03:44:05;3.57;;;3.07;;
17648;SDS011;8943;51.110;-4.158;2022-08-11T03:46:52;5.60;;;2.70;;
17648;SDS011;8943;51.110;-4.158;2022-08-11T03:49:33;3.80;;;2.83;;
17648;SDS011;8943;51.110;-4.158;2022-08-11T03:52:12;4.47;;;3.50;;
17648;SDS011;8943;51.110;-4.158;2022-08-11T03:54:57;3.03;;;2.70;;
17648;SDS011;8943;51.110;-4.158;2022-08-11T03:57:55;5.67;;;3.03;;
17648;SDS011;8943;51.110;-4.158;2022-08-11T04:01:06;4.33;;;3.00;;
17648;SDS011;8943;51.110;-4.158;2022-08-11T04:07:12;6.10;;;3.00;;
17648;SDS011;8943;51.110;-4.158;2022-08-11T04:10:07;3.23;;;2.50;;
17648;SDS011;8943;51.110;-4.158;2022-08-11T04:19:21;4.17;;;2.50;;
17648;SDS011;8943;51.110;-4.158;2022-08-11T04:22:26;6.53;;;2.50;;
17648;SDS011;8943;51.110;-4.158;2022-08-11T04:28:37;3.33;;;2.57;;
17648;SDS011;8943;51.110;-4.158;2022-08-11T04:37:10;3.80;;;2.43;;
17648;SDS011;8943;51.110;-4.158;2022-08-11T04:43:30;4.23;;;2.40;;
17648;SDS011;8943;51.110;-4.158;2022-08-11T04:49:58;3.40;;;2.03;;
17648;SDS011;8943;51.110;-4.158;2022-08-11T04:56:17;7.33;;;2.63;;
17648;SDS011;8943;51.110;-4.158;2022-08-11T05:09:12;4.57;;;2.60;;
17648;SDS011;8943;51.110;-4.158;2022-08-11T05:11:53;2.70;;;2.47;;
17648;SDS011;8943;51.110;-4.158;2022-08-11T05:14:32;3.20;;;2.33;;
17648;SDS011;8943;51.110;-4.158;2022-08-11T05:17:26;4.10;;;2.80;;
17648;SDS011;8943;51.110;-4.158;2022-08-11T05:20:17;4.63;;;3.27;;
17648;SDS011;8943;51.110;-4.158;2022-08-11T05:23:06;5.63;;;3.70;;
17648;SDS011;8943;51.110;-4.158;2022-08-11T05:25:54;4.10;;;2.43;;
17648;SDS011;8943;51.110;-4.158;2022-08-11T05:29:23;3.97;;;2.43;;
17648;SDS011;8943;51.110;-4.158;2022-08-11T05:32:14;4.30;;;2.53;;
17648;SDS011;8943;51.110;-4.158;2022-08-11T05:35:02;5.20;;;2.43;;
17648;SDS011;8943;51.110;-4.158;2022-08-11T05:37:36;6.87;;;2.30;;
17648;SDS011;8943;51.110;-4.158;2022-08-11T05:40:24;3.73;;;2.50;;
17648;SDS011;8943;51.110;-4.158;2022-08-11T05:43:18;7.10;;;2.87;;
17648;SDS011;8943;51.110;-4.158;2022-08-11T05:46:26;8.13;;;2.40;;
17648;SDS011;8943;51.110;-4.158;2022-08-11T05:49:12;7.07;;;2.20;;
17648;SDS011;8943;51.110;-4.158;2022-08-11T05:51:58;2.90;;;2.50;;
17648;SDS011;8943;51.110;-4.158;2022-08-11T05:54:59;4.00;;;2.47;;
17648;SDS011;8943;51.110;-4.158;2022-08-11T05:57:48;3.40;;;2.73;;
17648;SDS011;8943;51.110;-4.158;2022-08-11T06:00:22;5.80;;;2.73;;
17648;SDS011;8943;51.110;-4.158;2022-08-11T06:02:52;3.13;;;2.50;;
17648;SDS011;8943;51.110;-4.158;2022-08-11T06:05:22;3.53;;;2.20;;
17648;SDS011;8943;51.110;-4.158;2022-08-11T06:07:52;6.60;;;2.80;;
17648;SDS011;8943;51.110;-4.158;2022-08-11T06:10:27;2.97;;;2.37;;
17648;SDS011;8943;51.110;-4.158;2022-08-11T06:13:01;3.63;;;2.10;;
17648;SDS011;8943;51.110;-4.158;2022-08-11T06:15:32;5.10;;;2.10;;
17648;SDS011;8943;51.110;-4.158;2022-08-11T06:18:01;4.20;;;2.20;;
17648;SDS011;8943;51.110;-4.158;2022-08-11T06:20:30;2.47;;;1.97;;
17648;SDS011;8943;51.110;-4.158;2022-08-11T06:23:04;5.23;;;2.40;;
17648;SDS011;8943;51.110;-4.158;2022-08-11T06:25:35;5.03;;;2.40;;
17648;SDS011;8943;51.110;-4.158;2022-08-11T06:28:06;10.17;;;2.43;;
17648;SDS011;8943;51.110;-4.158;2022-08-11T06:30:35;5.40;;;2.17;;
17648;SDS011;8943;51.110;-4.158;2022-08-11T06:33:08;2.30;;;2.10;;
17648;SDS011;8943;51.110;-4.158;2022-08-11T06:35:44;3.53;;;2.20;;
17648;SDS011;8943;51.110;-4.158;2022-08-11T06:38:22;3.77;;;2.20;;
17648;SDS011;8943;51.110;-4.158;2022-08-11T06:41:06;3.93;;;2.40;;
17648;SDS011;8943;51.110;-4.158;2022-08-11T06:44:04;4.33;;;1.97;;
17648;SDS011;8943;51.110;-4.158;2022-08-11T06:46:40;3.23;;;2.10;;
17648;SDS011;8943;51.110;-4.158;2022-08-11T06:49:11;4.47;;;2.23;;
17648;SDS011;8943;51.110;-4.158;2022-08-11T06:51:55;5.60;;;2.10;;
17648;SDS011;8943;51.110;-4.158;2022-08-11T06:54:31;3.40;;;2.13;;
17648;SDS011;8943;51.110;-4.158;2022-08-11T06:57:01;4.93;;;2.17;;
17648;SDS011;8943;51.110;-4.158;2022-08-11T06:59:58;2.20;;;1.80;;
17648;SDS011;8943;51.110;-4.158;2022-08-11T07:02:56;3.53;;;1.80;;
17648;SDS011;8943;51.110;-4.158;2022-08-11T07:05:28;9.40;;;1.97;;
17648;SDS011;8943;51.110;-4.158;2022-08-11T07:08:14;2.03;;;1.80;;
17648;SDS011;8943;51.110;-4.158;2022-08-11T07:14:29;2.20;;;2.00;;
17648;SDS011;8943;51.110;-4.158;2022-08-11T07:17:18;5.10;;;2.63;;
17648;SDS011;8943;51.110;-4.158;2022-08-11T07:19:50;10.60;;;2.10;;
17648;SDS011;8943;51.110;-4.158;2022-08-11T07:22:38;5.03;;;1.97;;
17648;SDS011;8943;51.110;-4.158;2022-08-11T07:25:30;6.13;;;2.63;;
17648;SDS011;8943;51.110;-4.158;2022-08-11T07:28:21;5.93;;;2.40;;
17648;SDS011;8943;51.110;-4.158;2022-08-11T07:31:11;10.07;;;2.63;;
17648;SDS011;8943;51.110;-4.158;2022-08-11T07:33:45;3.43;;;2.50;;
17648;SDS011;8943;51.110;-4.158;2022-08-11T07:36:36;3.03;;;2.27;;
17648;SDS011;8943;51.110;-4.158;2022-08-11T07:39:07;4.80;;;2.17;;
17648;SDS011;8943;51.110;-4.158;2022-08-11T07:41:42;3.30;;;2.30;;
17648;SDS011;8943;51.110;-4.158;2022-08-11T07:44:11;4.73;;;2.30;;
17648;SDS011;8943;51.110;-4.158;2022-08-11T07:46:43;4.80;;;2.07;;
17648;SDS011;8943;51.110;-4.158;2022-08-11T07:49:33;8.20;;;2.60;;
17648;SDS011;8943;51.110;-4.158;2022-08-11T07:52:21;6.07;;;2.30;;
17648;SDS011;8943;51.110;-4.158;2022-08-11T07:54:57;4.73;;;2.13;;
17648;SDS011;8943;51.110;-4.158;2022-08-11T07:57:29;3.10;;;2.00;;
17648;SDS011;8943;51.110;-4.158;2022-08-11T08:00:36;3.43;;;2.13;;
17648;SDS011;8943;51.110;-4.158;2022-08-11T08:03:26;2.73;;;2.10;;
17648;SDS011;8943;51.110;-4.158;2022-08-11T08:06:21;7.60;;;2.80;;
17648;SDS011;8943;51.110;-4.158;2022-08-11T08:09:08;3.30;;;2.53;;
17648;SDS011;8943;51.110;-4.158;2022-08-11T08:11:55;4.00;;;2.20;;
17648;SDS011;8943;51.110;-4.158;2022-08-11T08:14:44;3.13;;;1.83;;
17648;SDS011;8943;51.110;-4.158;2022-08-11T08:17:30;3.13;;;1.77;;
17648;SDS011;8943;51.110;-4.158;2022-08-11T08:20:39;2.13;;;1.60;;
17648;SDS011;8943;51.110;-4.158;2022-08-11T08:23:14;4.47;;;2.10;;
17648;SDS011;8943;51.110;-4.158;2022-08-11T08:25:44;5.23;;;2.07;;
17648;SDS011;8943;51.110;-4.158;2022-08-11T08:28:14;7.13;;;1.80;;
17648;SDS011;8943;51.110;-4.158;2022-08-11T08:30:44;5.73;;;2.10;;
17648;SDS011;8943;51.110;-4.158;2022-08-11T08:33:18;3.33;;;1.77;;
17648;SDS011;8943;51.110;-4.158;2022-08-11T08:35:51;3.30;;;2.20;;
17648;SDS011;8943;51.110;-4.158;2022-08-11T08:38:43;4.33;;;1.60;;
17648;SDS011;8943;51.110;-4.158;2022-08-11T08:41:17;3.77;;;1.70;;
17648;SDS011;8943;51.110;-4.158;2022-08-11T08:43:49;6.33;;;1.83;;
17648;SDS011;8943;51.110;-4.158;2022-08-11T08:46:41;4.97;;;1.90;;
17648;SDS011;8943;51.110;-4.158;2022-08-11T08:49:13;2.50;;;1.70;;
17648;SDS011;8943;51.110;-4.158;2022-08-11T08:51:44;3.87;;;1.57;;
17648;SDS011;8943;51.110;-4.158;2022-08-11T08:54:37;4.10;;;1.80;;
17648;SDS011;8943;51.110;-4.158;2022-08-11T08:57:08;2.60;;;2.10;;
17648;SDS011;8943;51.110;-4.158;2022-08-11T08:59:39;2.83;;;1.50;;
17648;SDS011;8943;51.110;-4.158;2022-08-11T09:02:14;2.87;;;1.40;;
17648;SDS011;8943;51.110;-4.158;2022-08-11T09:04:59;3.47;;;1.33;;
17648;SDS011;8943;51.110;-4.158;2022-08-11T09:07:29;2.67;;;1.47;;
17648;SDS011;8943;51.110;-4.158;2022-08-11T09:10:08;2.10;;;1.30;;
17648;SDS011;8943;51.110;-4.158;2022-08-11T09:12:40;2.27;;;1.40;;
17648;SDS011;8943;51.110;-4.158;2022-08-11T09:15:09;4.97;;;1.45;;
17648;SDS011;8943;51.110;-4.158;2022-08-11T09:17:45;2.47;;;1.45;;
17648;SDS011;8943;51.110;-4.158;2022-08-11T09:20:17;3.10;;;1.38;;
17648;SDS011;8943;51.110;-4.158;2022-08-11T09:22:48;1.35;;;1.10;;
17648;SDS011;8943;51.110;-4.158;2022-08-11T09:25:58;2.70;;;1.48;;
17648;SDS011;8943;51.110;-4.158;2022-08-11T09:28:45;3.13;;;1.27;;
17648;SDS011;8943;51.110;-4.158;2022-08-11T09:31:15;1.48;;;1.25;;
17648;SDS011;8943;51.110;-4.158;2022-08-11T09:33:47;1.50;;;1.20;;
17648;SDS011;8943;51.110;-4.158;2022-08-11T09:36:20;4.03;;;1.63;;
17648;SDS011;8943;51.110;-4.158;2022-08-11T09:39:08;4.25;;;1.65;;
17648;SDS011;8943;51.110;-4.158;2022-08-11T09:41:59;4.07;;;1.38;;
17648;SDS011;8943;51.110;-4.158;2022-08-11T09:44:30;2.40;;;1.50;;
17648;SDS011;8943;51.110;-4.158;2022-08-11T09:47:21;2.47;;;1.42;;
17648;SDS011;8943;51.110;-4.158;2022-08-11T09:49:52;5.90;;;1.50;;
17648;SDS011;8943;51.110;-4.158;2022-08-11T09:52:26;3.28;;;1.60;;
17648;SDS011;8943;51.110;-4.158;2022-08-11T09:54:56;2.80;;;1.58;;
17648;SDS011;8943;51.110;-4.158;2022-08-11T09:57:27;2.83;;;1.50;;
17648;SDS011;8943;51.110;-4.158;2022-08-11T10:00:14;2.60;;;1.70;;
17648;SDS011;8943;51.110;-4.158;2022-08-11T10:02:44;2.50;;;1.50;;
17648;SDS011;8943;51.110;-4.158;2022-08-11T10:05:16;2.35;;;1.10;;
17648;SDS011;8943;51.110;-4.158;2022-08-11T10:08:03;1.85;;;1.17;;
17648;SDS011;8943;51.110;-4.158;2022-08-11T10:10:34;1.52;;;1.20;;
17648;SDS011;8943;51.110;-4.158;2022-08-11T10:13:06;3.63;;;1.40;;
17648;SDS011;8943;51.110;-4.158;2022-08-11T10:15:58;2.05;;;1.10;;
17648;SDS011;8943;51.110;-4.158;2022-08-11T10:18:42;1.33;;;0.95;;
17648;SDS011;8943;51.110;-4.158;2022-08-11T10:21:25;3.17;;;1.08;;
17648;SDS011;8943;51.110;-4.158;2022-08-11T10:23:57;5.80;;;1.20;;
17648;SDS011;8943;51.110;-4.158;2022-08-11T10:26:44;3.00;;;1.25;;
17648;SDS011;8943;51.110;-4.158;2022-08-11T10:29:23;2.70;;;1.10;;
17648;SDS011;8943;51.110;-4.158;2022-08-11T10:32:18;1.10;;;0.80;;
17648;SDS011;8943;51.110;-4.158;2022-08-11T10:35:24;1.15;;;0.80;;
17648;SDS011;8943;51.110;-4.158;2022-08-11T10:37:54;1.33;;;1.13;;
17648;SDS011;8943;51.110;-4.158;2022-08-11T10:40:36;0.75;;;0.57;;
17648;SDS011;8943;51.110;-4.158;2022-08-11T10:43:06;2.75;;;1.00;;
17648;SDS011;8943;51.110;-4.158;2022-08-11T10:46:00;1.08;;;0.77;;
17648;SDS011;8943;51.110;-4.158;2022-08-11T10:48:56;0.80;;;0.60;;
17648;SDS011;8943;51.110;-4.158;2022-08-11T10:51:25;0.82;;;0.70;;
17648;SDS011;8943;51.110;-4.158;2022-08-11T10:54:17;1.58;;;0.77;;
17648;SDS011;8943;51.110;-4.158;2022-08-11T10:57:05;0.90;;;0.80;;
17648;SDS011;8943;51.110;-4.158;2022-08-11T11:00:03;1.63;;;0.65;;
17648;SDS011;8943;51.110;-4.158;2022-08-11T11:02:34;2.10;;;0.70;;
17648;SDS011;8943;51.110;-4.158;2022-08-11T11:05:03;1.25;;;0.70;;
17648;SDS011;8943;51.110;-4.158;2022-08-11T11:07:40;1.70;;;0.68;;
17648;SDS011;8943;51.110;-4.158;2022-08-11T11:10:20;3.50;;;0.90;;
17648;SDS011;8943;51.110;-4.158;2022-08-11T11:12:52;1.67;;;0.80;;
17648;SDS011;8943;51.110;-4.158;2022-08-11T11:15:41;2.20;;;0.70;;
17648;SDS011;8943;51.110;-4.158;2022-08-11T11:18:35;0.47;;;0.45;;
17648;SDS011;8943;51.110;-4.158;2022-08-11T11:21:26;0.63;;;0.50;;
17648;SDS011;8943;51.110;-4.158;2022-08-11T11:23:59;0.98;;;0.60;;
17648;SDS011;8943;51.110;-4.158;2022-08-11T11:26:46;1.70;;;0.80;;
17648;SDS011;8943;51.110;-4.158;2022-08-11T11:32:23;1.13;;;0.70;;
17648;SDS011;8943;51.110;-4.158;2022-08-11T11:37:54;1.17;;;0.70;;
17648;SDS011;8943;51.110;-4.158;2022-08-11T11:40:30;1.30;;;0.80;;
17648;SDS011;8943;51.110;-4.158;2022-08-11T11:43:00;0.80;;;0.60;;
17648;SDS011;8943;51.110;-4.158;2022-08-11T11:45:43;1.10;;;0.68;;
17648;SDS011;8943;51.110;-4.158;2022-08-11T11:48:12;1.60;;;0.70;;
17648;SDS011;8943;51.110;-4.158;2022-08-11T11:50:48;1.55;;;0.90;;
17648;SDS011;8943;51.110;-4.158;2022-08-11T11:53:19;0.82;;;0.73;;
17648;SDS011;8943;51.110;-4.158;2022-08-11T11:55:49;0.85;;;0.63;;
17648;SDS011;8943;51.110;-4.158;2022-08-11T11:58:18;0.77;;;0.70;;
17648;SDS011;8943;51.110;-4.158;2022-08-11T12:01:08;1.58;;;0.80;;
17648;SDS011;8943;51.110;-4.158;2022-08-11T12:03:46;0.82;;;0.70;;
17648;SDS011;8943;51.110;-4.158;2022-08-11T12:06:20;1.92;;;0.70;;
17648;SDS011;8943;51.110;-4.158;2022-08-11T12:08:52;2.65;;;0.80;;
17648;SDS011;8943;51.110;-4.158;2022-08-11T12:11:22;2.20;;;0.93;;
17648;SDS011;8943;51.110;-4.158;2022-08-11T12:14:09;2.25;;;0.77;;
17648;SDS011;8943;51.110;-4.158;2022-08-11T12:16:39;2.03;;;0.90;;
17648;SDS011;8943;51.110;-4.158;2022-08-11T12:19:09;3.72;;;0.70;;
17648;SDS011;8943;51.110;-4.158;2022-08-11T12:22:15;0.50;;;0.50;;
17648;SDS011;8943;51.110;-4.158;2022-08-11T12:25:01;0.85;;;0.80;;
17648;SDS011;8943;51.110;-4.158;2022-08-11T12:27:48;1.30;;;0.60;;
17648;SDS011;8943;51.110;-4.158;2022-08-11T12:30:17;2.22;;;0.60;;
17648;SDS011;8943;51.110;-4.158;2022-08-11T12:32:46;3.95;;;0.60;;
17648;SDS011;8943;51.110;-4.158;2022-08-11T12:35:16;2.17;;;0.85;;
17648;SDS011;8943;51.110;-4.158;2022-08-11T12:37:50;0.93;;;0.73;;
17648;SDS011;8943;51.110;-4.158;2022-08-11T12:40:35;1.35;;;0.50;;
17648;SDS011;8943;51.110;-4.158;2022-08-11T12:43:42;0.80;;;0.60;;
17648;SDS011;8943;51.110;-4.158;2022-08-11T12:46:32;0.60;;;0.60;;
17648;SDS011;8943;51.110;-4.158;2022-08-11T12:49:04;0.73;;;0.73;;
17648;SDS011;8943;51.110;-4.158;2022-08-11T12:51:57;2.45;;;0.70;;
17648;SDS011;8943;51.110;-4.158;2022-08-11T12:54:47;0.70;;;0.65;;
17648;SDS011;8943;51.110;-4.158;2022-08-11T12:57:29;2.38;;;0.60;;
17648;SDS011;8943;51.110;-4.158;2022-08-11T13:00:18;1.00;;;0.50;;
17648;SDS011;8943;51.110;-4.158;2022-08-11T13:03:05;0.55;;;0.55;;
17648;SDS011;8943;51.110;-4.158;2022-08-11T13:05:53;2.25;;;0.70;;
17648;SDS011;8943;51.110;-4.158;2022-08-11T13:08:24;0.77;;;0.70;;
17648;SDS011;8943;51.110;-4.158;2022-08-11T13:10:57;0.55;;;0.50;;
17648;SDS011;8943;51.110;-4.158;2022-08-11T13:13:45;1.05;;;0.63;;
17648;SDS011;8943;51.110;-4.158;2022-08-11T13:16:24;0.98;;;0.73;;
17648;SDS011;8943;51.110;-4.158;2022-08-11T13:18:56;0.85;;;0.65;;
17648;SDS011;8943;51.110;-4.158;2022-08-11T13:21:27;1.13;;;0.63;;
17648;SDS011;8943;51.110;-4.158;2022-08-11T13:23:56;1.30;;;0.80;;
17648;SDS011;8943;51.110;-4.158;2022-08-11T13:26:43;1.05;;;0.75;;
17648;SDS011;8943;51.110;-4.158;2022-08-11T13:29:20;0.82;;;0.60;;
17648;SDS011;8943;51.110;-4.158;2022-08-11T13:31:51;1.20;;;0.60;;
17648;SDS011;8943;51.110;-4.158;2022-08-11T13:34:36;0.50;;;0.50;;
17648;SDS011;8943;51.110;-4.158;2022-08-11T13:37:26;1.52;;;0.70;;
17648;SDS011;8943;51.110;-4.158;2022-08-11T13:40:28;2.47;;;0.60;;
17648;SDS011;8943;51.110;-4.158;2022-08-11T13:43:24;2.10;;;0.80;;
17648;SDS011;8943;51.110;-4.158;2022-08-11T13:45:54;0.75;;;0.40;;
17648;SDS011;8943;51.110;-4.158;2022-08-11T13:48:45;0.98;;;0.65;;
17648;SDS011;8943;51.110;-4.158;2022-08-11T13:51:15;0.90;;;0.50;;
17648;SDS011;8943;51.110;-4.158;2022-08-11T13:54:04;1.38;;;0.60;;
17648;SDS011;8943;51.110;-4.158;2022-08-11T13:56:37;0.50;;;0.40;;
17648;SDS011;8943;51.110;-4.158;2022-08-11T13:59:18;1.05;;;0.52;;
17648;SDS011;8943;51.110;-4.158;2022-08-11T14:01:56;1.00;;;0.70;;
17648;SDS011;8943;51.110;-4.158;2022-08-11T14:04:51;0.60;;;0.50;;
17648;SDS011;8943;51.110;-4.158;2022-08-11T14:07:23;0.82;;;0.60;;
17648;SDS011;8943;51.110;-4.158;2022-08-11T14:09:55;0.80;;;0.57;;
17648;SDS011;8943;51.110;-4.158;2022-08-11T14:12:26;1.40;;;0.50;;
17648;SDS011;8943;51.110;-4.158;2022-08-11T14:15:17;0.38;;;0.38;;
17648;SDS011;8943;51.110;-4.158;2022-08-11T14:17:50;0.55;;;0.45;;
17648;SDS011;8943;51.110;-4.158;2022-08-11T14:20:23;0.65;;;0.50;;
17648;SDS011;8943;51.110;-4.158;2022-08-11T14:23:11;0.30;;;0.30;;
17648;SDS011;8943;51.110;-4.158;2022-08-11T14:25:40;0.20;;;0.20;;
17648;SDS011;8943;51.110;-4.158;2022-08-11T14:28:32;0.40;;;0.30;;
17648;SDS011;8943;51.110;-4.158;2022-08-11T14:31:11;1.65;;;0.40;;
17648;SDS011;8943;51.110;-4.158;2022-08-11T14:33:46;1.55;;;0.45;;
17648;SDS011;8943;51.110;-4.158;2022-08-11T14:39:23;1.60;;;0.50;;
17648;SDS011;8943;51.110;-4.158;2022-08-11T14:41:55;1.88;;;0.40;;
17648;SDS011;8943;51.110;-4.158;2022-08-11T14:44:53;1.38;;;0.40;;
17648;SDS011;8943;51.110;-4.158;2022-08-11T14:47:50;1.23;;;0.40;;
17648;SDS011;8943;51.110;-4.158;2022-08-11T14:50:59;0.52;;;0.50;;
17648;SDS011;8943;51.110;-4.158;2022-08-11T14:53:31;0.55;;;0.40;;
17648;SDS011;8943;51.110;-4.158;2022-08-11T14:56:01;0.90;;;0.28;;
17648;SDS011;8943;51.110;-4.158;2022-08-11T15:02:32;0.45;;;0.40;;
17648;SDS011;8943;51.110;-4.158;2022-08-11T15:11:13;0.52;;;0.40;;
17648;SDS011;8943;51.110;-4.158;2022-08-11T15:14:01;0.40;;;0.40;;
17648;SDS011;8943;51.110;-4.158;2022-08-11T15:16:32;0.68;;;0.55;;
17648;SDS011;8943;51.110;-4.158;2022-08-11T15:19:20;1.10;;;0.60;;
17648;SDS011;8943;51.110;-4.158;2022-08-11T15:21:54;0.70;;;0.45;;
17648;SDS011;8943;51.110;-4.158;2022-08-11T15:24:39;1.88;;;0.60;;
17648;SDS011;8943;51.110;-4.158;2022-08-11T15:27:13;4.50;;;0.63;;
17648;SDS011;8943;51.110;-4.158;2022-08-11T15:30:04;2.25;;;0.52;;
17648;SDS011;8943;51.110;-4.158;2022-08-11T15:33:00;0.50;;;0.40;;
17648;SDS011;8943;51.110;-4.158;2022-08-11T15:35:53;3.00;;;0.70;;
17648;SDS011;8943;51.110;-4.158;2022-08-11T15:38:42;1.40;;;0.50;;
17648;SDS011;8943;51.110;-4.158;2022-08-11T15:41:23;0.73;;;0.43;;
17648;SDS011;8943;51.110;-4.158;2022-08-11T15:44:31;1.63;;;0.73;;
17648;SDS011;8943;51.110;-4.158;2022-08-11T15:47:32;0.43;;;0.43;;
17648;SDS011;8943;51.110;-4.158;2022-08-11T15:50:31;5.50;;;0.60;;
17648;SDS011;8943;51.110;-4.158;2022-08-11T15:53:23;0.75;;;0.40;;
17648;SDS011;8943;51.110;-4.158;2022-08-11T15:56:05;1.02;;;0.55;;
17648;SDS011;8943;51.110;-4.158;2022-08-11T15:58:38;0.88;;;0.60;;
17648;SDS011;8943;51.110;-4.158;2022-08-11T16:01:48;1.88;;;0.43;;
17648;SDS011;8943;51.110;-4.158;2022-08-11T16:04:57;0.43;;;0.30;;
17648;SDS011;8943;51.110;-4.158;2022-08-11T16:07:28;3.15;;;0.60;;
17648;SDS011;8943;51.110;-4.158;2022-08-11T16:10:06;0.65;;;0.40;;
17648;SDS011;8943;51.110;-4.158;2022-08-11T16:12:45;0.60;;;0.40;;
17648;SDS011;8943;51.110;-4.158;2022-08-11T16:15:48;1.48;;;0.40;;
17648;SDS011;8943;51.110;-4.158;2022-08-11T16:18:40;2.33;;;0.45;;
17648;SDS011;8943;51.110;-4.158;2022-08-11T16:21:17;0.60;;;0.40;;
17648;SDS011;8943;51.110;-4.158;2022-08-11T16:24:02;0.40;;;0.40;;
17648;SDS011;8943;51.110;-4.158;2022-08-11T16:26:33;1.10;;;0.30;;
17648;SDS011;8943;51.110;-4.158;2022-08-11T16:29:24;0.57;;;0.40;;
17648;SDS011;8943;51.110;-4.158;2022-08-11T16:31:57;1.45;;;0.45;;
17648;SDS011;8943;51.110;-4.158;2022-08-11T16:34:49;1.75;;;0.43;;
17648;SDS011;8943;51.110;-4.158;2022-08-11T16:37:39;0.52;;;0.40;;
17648;SDS011;8943;51.110;-4.158;2022-08-11T16:40:26;2.38;;;0.50;;
17648;SDS011;8943;51.110;-4.158;2022-08-11T16:42:56;0.40;;;0.40;;
17648;SDS011;8943;51.110;-4.158;2022-08-11T16:45:42;1.33;;;0.60;;
17648;SDS011;8943;51.110;-4.158;2022-08-11T16:48:31;0.70;;;0.40;;
17648;SDS011;8943;51.110;-4.158;2022-08-11T16:51:09;1.02;;;0.50;;
17648;SDS011;8943;51.110;-4.158;2022-08-11T16:53:58;0.40;;;0.40;;
17648;SDS011;8943;51.110;-4.158;2022-08-11T16:56:34;0.65;;;0.43;;
17648;SDS011;8943;51.110;-4.158;2022-08-11T16:59:18;0.60;;;0.50;;
17648;SDS011;8943;51.110;-4.158;2022-08-11T17:01:53;2.63;;;0.52;;
17648;SDS011;8943;51.110;-4.158;2022-08-11T17:04:35;0.50;;;0.40;;
17648;SDS011;8943;51.110;-4.158;2022-08-11T17:07:31;1.02;;;0.50;;
17648;SDS011;8943;51.110;-4.158;2022-08-11T17:10:20;0.98;;;0.40;;
17648;SDS011;8943;51.110;-4.158;2022-08-11T17:13:20;0.57;;;0.50;;
17648;SDS011;8943;51.110;-4.158;2022-08-11T17:18:36;0.63;;;0.47;;
17648;SDS011;8943;51.110;-4.158;2022-08-11T17:21:13;2.65;;;0.60;;
17648;SDS011;8943;51.110;-4.158;2022-08-11T17:23:47;1.15;;;0.60;;
17648;SDS011;8943;51.110;-4.158;2022-08-11T17:26:19;2.88;;;0.80;;
17648;SDS011;8943;51.110;-4.158;2022-08-11T17:28:51;2.10;;;0.80;;
17648;SDS011;8943;51.110;-4.158;2022-08-11T17:31:23;0.65;;;0.50;;
17648;SDS011;8943;51.110;-4.158;2022-08-11T17:34:14;0.68;;;0.57;;
17648;SDS011;8943;51.110;-4.158;2022-08-11T17:37:01;0.52;;;0.50;;
17648;SDS011;8943;51.110;-4.158;2022-08-11T17:39:51;4.10;;;0.70;;
17648;SDS011;8943;51.110;-4.158;2022-08-11T17:42:30;0.85;;;0.73;;
17648;SDS011;8943;51.110;-4.158;2022-08-11T17:45:30;1.70;;;0.60;;
17648;SDS011;8943;51.110;-4.158;2022-08-11T17:48:44;2.58;;;0.80;;
17648;SDS011;8943;51.110;-4.158;2022-08-11T17:51:18;1.13;;;0.65;;
17648;SDS011;8943;51.110;-4.158;2022-08-11T17:54:02;0.82;;;0.70;;
17648;SDS011;8943;51.110;-4.158;2022-08-11T17:56:53;1.30;;;0.85;;
17648;SDS011;8943;51.110;-4.158;2022-08-11T17:59:47;0.82;;;0.80;;